createdAt,value
2023-03-23T15:57:54.620Z,0.30
2023-03-23T16:00:23.438Z,0.30
2023-03-23T16:02:57.704Z,0.30
2023-03-23T16:05:24.804Z,0.30
2023-03-23T16:07:51.846Z,0.30
2023-03-23T16:10:23.739Z,0.10
2023-03-23T16:12:50.396Z,0.25
2023-03-23T16:15:17.560Z,0.40
2023-03-23T16:17:44.972Z,0.28
2023-03-23T16:20:14.744Z,0.20
2023-03-23T16:22:41.813Z,0.20
2023-03-23T16:25:09.888Z,0.10
2023-03-23T16:27:36.469Z,0.20
2023-03-23T16:30:20.213Z,0.20
2023-03-23T16:32:47.066Z,0.20
2023-03-23T16:35:15.295Z,0.30
2023-03-23T16:38:07.834Z,0.30
2023-03-23T16:40:37.198Z,0.20
2023-03-23T16:43:08.960Z,0.20
2023-03-23T16:45:37.037Z,0.20
2023-03-23T16:48:04.204Z,0.20
2023-03-23T16:50:31.584Z,1.00
2023-03-23T16:52:59.003Z,1.10
2023-03-23T16:55:27.122Z,0.68
2023-03-23T16:58:05.278Z,0.30
2023-03-23T17:00:36.186Z,0.52
2023-03-23T17:03:02.887Z,0.40
2023-03-23T17:05:29.667Z,0.30
2023-03-23T17:07:56.617Z,0.38
2023-03-23T17:10:27.022Z,0.20
2023-03-23T17:12:55.234Z,0.40
2023-03-23T17:15:24.172Z,0.30
2023-03-23T17:17:52.428Z,0.30
2023-03-23T17:20:19.519Z,0.40
2023-03-23T17:22:46.370Z,0.40
2023-03-23T17:25:13.310Z,0.20
2023-03-23T17:27:40.547Z,0.40
2023-03-23T17:30:08.713Z,0.40
2023-03-23T17:32:36.667Z,0.35
2023-03-23T17:35:05.391Z,0.40
2023-03-23T17:37:32.743Z,0.40
2023-03-23T17:39:59.526Z,0.20
2023-03-23T17:42:26.957Z,0.30
2023-03-23T17:44:53.614Z,0.30
2023-03-23T17:47:20.512Z,0.30
2023-03-23T17:49:47.889Z,0.30
2023-03-23T17:52:14.738Z,0.30
2023-03-23T17:54:41.752Z,0.30
2023-03-23T17:57:08.643Z,0.43
2023-03-23T17:59:35.394Z,0.63
2023-03-23T18:02:02.288Z,0.30
2023-03-23T18:04:28.984Z,0.77
2023-03-23T18:06:57.763Z,0.25
2023-03-23T18:09:25.424Z,0.32
2023-03-23T18:11:53.058Z,0.47
2023-03-23T18:14:20.718Z,0.30
2023-03-23T18:16:48.077Z,0.20
2023-03-23T18:19:15.015Z,0.90
2023-03-23T18:21:43.850Z,0.40
2023-03-23T18:24:13.542Z,0.30
2023-03-23T18:26:40.802Z,0.40
2023-03-23T18:29:07.351Z,0.30
2023-03-23T18:31:34.209Z,0.30
2023-03-23T18:34:00.984Z,0.45
2023-03-23T18:36:28.413Z,0.50
2023-03-23T18:38:58.695Z,0.60
2023-03-23T18:41:26.044Z,0.60
2023-03-23T18:43:52.815Z,0.70
2023-03-23T18:46:19.847Z,0.60
2023-03-23T18:48:46.474Z,0.45
2023-03-23T18:51:13.611Z,0.85
2023-03-23T18:53:40.623Z,0.68
2023-03-23T18:56:13.013Z,0.50
2023-03-23T18:58:40.104Z,0.47
2023-03-23T19:01:09.731Z,0.60
2023-03-23T19:03:37.706Z,0.80
2023-03-23T19:06:05.898Z,0.70
2023-03-23T19:08:34.839Z,0.70
2023-03-23T19:11:03.958Z,0.50
2023-03-23T19:13:34.076Z,1.00
2023-03-23T19:16:00.992Z,0.88
2023-03-23T19:18:28.141Z,0.88
2023-03-23T19:21:13.006Z,0.90
2023-03-23T19:23:41.767Z,0.90
2023-03-23T19:26:08.474Z,0.88
2023-03-23T19:31:05.080Z,0.80
2023-03-23T19:33:31.696Z,0.75
2023-03-23T19:36:09.314Z,0.77
2023-03-23T19:38:38.220Z,1.27
2023-03-23T19:41:05.957Z,1.20
2023-03-23T19:46:00.074Z,1.65
2023-03-23T19:48:27.059Z,0.98
2023-03-23T19:50:53.760Z,1.30
2023-03-23T19:53:20.626Z,1.13
2023-03-23T19:55:47.998Z,1.05
2023-03-23T19:58:15.710Z,1.48
2023-03-23T20:03:10.195Z,1.27
2023-03-23T20:05:37.295Z,1.08
2023-03-23T20:08:04.911Z,1.48
2023-03-23T20:10:34.635Z,1.10
2023-03-23T20:13:02.885Z,1.02
2023-03-23T20:15:30.689Z,1.15
2023-03-23T20:17:58.437Z,1.38
2023-03-23T20:20:25.645Z,1.02
2023-03-23T20:22:54.514Z,1.13
2023-03-23T20:25:23.175Z,1.15
2023-03-23T20:27:49.998Z,1.05
2023-03-23T20:30:17.550Z,1.98
2023-03-23T20:32:46.364Z,0.95
2023-03-23T20:35:14.663Z,1.38
2023-03-23T20:37:41.534Z,1.23
2023-03-23T20:40:15.402Z,1.30
2023-03-23T20:42:44.085Z,1.05
2023-03-23T20:45:13.021Z,1.10
2023-03-23T20:47:40.035Z,1.00
2023-03-23T20:50:08.959Z,1.48
2023-03-23T20:52:36.897Z,1.10
2023-03-23T20:55:04.526Z,1.13
2023-03-23T20:57:31.273Z,1.30
2023-03-23T20:59:58.084Z,1.20
2023-03-23T21:02:29.768Z,1.20
2023-03-23T21:04:58.153Z,1.27
2023-03-23T21:07:27.376Z,1.10
2023-03-23T21:09:54.023Z,1.20
2023-03-23T21:12:20.940Z,1.30
2023-03-23T21:14:47.958Z,1.23
2023-03-23T21:17:14.581Z,1.02
2023-03-23T21:19:41.654Z,1.13
2023-03-23T21:22:09.722Z,1.42
2023-03-23T21:24:38.531Z,1.20
2023-03-23T21:27:05.394Z,0.90
2023-03-23T21:29:32.349Z,1.00
2023-03-23T21:34:29.443Z,1.05
2023-03-23T21:36:56.327Z,0.98
2023-03-23T21:39:23.394Z,1.02
2023-03-23T21:41:50.004Z,0.90
2023-03-23T21:44:18.079Z,0.90
2023-03-23T21:46:45.119Z,0.80
2023-03-23T21:49:14.246Z,0.77
2023-03-23T21:51:42.792Z,0.57
2023-03-23T21:54:10.985Z,0.45
2023-03-23T21:56:38.142Z,0.85
2023-03-23T21:59:07.345Z,0.68
2023-03-23T22:01:36.763Z,0.65
2023-03-23T22:04:04.720Z,0.50
2023-03-23T22:06:34.282Z,0.50
2023-03-23T22:09:04.298Z,0.50
2023-03-23T22:11:34.022Z,0.35
2023-03-23T22:14:01.376Z,0.50
2023-03-23T22:16:28.423Z,0.38
2023-03-23T22:18:56.952Z,0.80
2023-03-23T22:21:26.356Z,0.40
2023-03-23T22:23:55.329Z,0.60
2023-03-23T22:26:22.534Z,0.40
2023-03-23T22:28:51.008Z,0.40
2023-03-23T22:31:21.668Z,0.55
2023-03-23T22:36:17.623Z,0.40
2023-03-23T22:38:46.616Z,0.43
2023-03-23T22:41:22.266Z,0.30
2023-03-23T22:43:49.255Z,0.50
2023-03-23T22:46:16.710Z,0.40
2023-03-23T22:48:44.724Z,0.30
2023-03-23T22:51:13.470Z,0.45
2023-03-23T22:53:40.248Z,0.40
2023-03-23T22:56:08.049Z,0.40
2023-03-23T22:58:35.269Z,0.50
2023-03-23T23:01:08.662Z,0.40
2023-03-23T23:03:36.853Z,0.40
2023-03-23T23:06:04.144Z,0.45
2023-03-23T23:08:31.975Z,0.63
2023-03-23T23:11:01.736Z,0.60
2023-03-23T23:13:29.544Z,0.43
2023-03-23T23:15:59.156Z,0.60
2023-03-23T23:18:27.216Z,0.77
2023-03-23T23:20:56.689Z,0.52
2023-03-23T23:23:24.717Z,0.40
2023-03-23T23:25:52.127Z,0.60
2023-03-23T23:28:20.334Z,0.68
2023-03-23T23:30:48.077Z,0.60
2023-03-23T23:33:14.980Z,0.98
2023-03-23T23:35:42.493Z,0.60
2023-03-23T23:38:12.362Z,0.47
2023-03-23T23:40:41.404Z,0.50
2023-03-23T23:43:10.283Z,0.43
2023-03-23T23:45:37.275Z,0.80
2023-03-23T23:48:04.751Z,0.80
2023-03-23T23:50:32.122Z,0.50
2023-03-23T23:52:59.114Z,0.45
2023-03-23T23:55:26.956Z,0.70
2023-03-23T23:57:54.088Z,0.45
